Time;durP1;ratioP1;P1;durP2;ratioP2;P2;SDS_P1;SDS_P2;PMS_P1;PMS_P2;Temp;Humidity;BMP_temperature;BMP_pressure;BME280_temperature;BME280_humidity;BME280_pressure;Samples;Min_cycle;Max_cycle;Signal;HPM_P1;HPM_P2
2023/12/19 00:01:40;;;;;;;;;;;;;;;;;;5029905;28;19920;-47
2023/12/19 00:04:06;;;;;;;;;;;;;;;;;;5026009;28;19924;-47
2023/12/19 00:06:33;;;;;;;;;;;;;;;;;;5014898;28;19918;-47
2023/12/19 00:08:59;;;;;;;;;;;;;;;;;;5032870;28;19913;-47
2023/12/19 00:11:26;;;;;;;;;;;;;;;;;;5034527;28;19920;-46
2023/12/19 00:13:52;;;;;;;;;;;;;;;;;;5025162;28;19914;-50
2023/12/19 00:16:18;;;;;;;;;;;;;;;;;;5024444;28;20321;-49
2023/12/19 00:18:44;;;;;;;;;;;;;;;;;;5032747;28;20382;-47
2023/12/19 00:21:10;;;;;;;;;;;;;;;;;;5022290;28;19920;-50
2023/12/19 00:23:36;;;;;;;;;;;;;;;;;;5020046;28;19913;-48
2023/12/19 00:26:02;;;;;;;;;;;;;;;;;;5031779;28;19924;-49
2023/12/19 00:28:28;;;;;;;;;;;;;;;;;;5034161;28;19966;-47
2023/12/19 00:30:54;;;;;;;;;;;;;;;;;;5027088;28;19913;-48
2023/12/19 00:33:20;;;;;;;;;;;;;;;;;;5018251;28;20392;-47
2023/12/19 00:35:46;;;;;;;;;;;;;;;;;;5032356;28;19917;-47
2023/12/19 00:38:12;;;;;;;;;;;;;;;;;;5033498;28;19917;-47
2023/12/19 00:40:39;;;;;;;;;;;;;;;;;;5014962;28;19991;-47
2023/12/19 00:43:05;;;;;;;;;;;;;;;;;;5014224;28;19913;-47
2023/12/19 00:45:31;;;;;;;;;;;;;;;;;;5029609;28;19917;-47
2023/12/19 00:47:57;;;;;;;;;;;;;;;;;;5014238;28;20000;-47
2023/12/19 00:50:23;;;;;;;;;;;;;;;;;;5015308;28;20324;-46
2023/12/19 00:52:49;;;;;;;;;;;;;;;;;;5024425;28;20278;-47
2023/12/19 00:55:15;;;;;;;;;;;;;;;;;;5032350;28;19917;-47
2023/12/19 00:57:41;;;;;;;;;;;;;;;;;;5025871;28;20294;-47
2023/12/19 01:00:07;;;;;;;;;;;;;;;;;;5014236;28;19913;-47
2023/12/19 01:02:33;;;;;;;;;;;;;;;;;;4996427;28;19993;-47
2023/12/19 01:04:59;;;;;;;;;;;;;;;;;;5015157;28;19924;-47
2023/12/19 01:07:25;;;;;;;;;;;;;;;;;;5014950;28;20271;-47
2023/12/19 01:09:52;;;;;;;;;;;;;;;;;;5032537;28;19913;-47
2023/12/19 01:12:18;;;;;;;;;;;;;;;;;;5012622;28;19913;-47
2023/12/19 01:14:44;;;;;;;;;;;;;;;;;;5027715;28;19919;-47
2023/12/19 01:17:10;;;;;;;;;;;;;;;;;;5013602;28;19921;-47
2023/12/19 01:19:37;;;;;;;;;;;;;;;;;;5016629;28;19912;-49
2023/12/19 01:22:03;;;;;;;;;;;;;;;;;;5033307;28;20295;-48
2023/12/19 01:24:29;;;;;;;;;;;;;;;;;;5021112;28;19913;-48
2023/12/19 01:26:55;;;;;;;;;;;;;;;;;;5014394;28;20008;-47
2023/12/19 01:29:22;;;;;;;;;;;;;;;;;;5026224;28;19913;-50
2023/12/19 01:31:48;;;;;;;;;;;;;;;;;;5027182;28;19928;-47
2023/12/19 01:34:14;;;;;;;;;;;;;;;;;;5022091;28;19921;-47
2023/12/19 01:36:41;;;;;;;;;;;;;;;;;;5024036;28;20317;-46
2023/12/19 01:39:07;;;;;;;;;;;;;;;;;;5013555;28;20306;-48
2023/12/19 01:41:33;;;;;;;;;;;;;;;;;;5021763;28;19909;-47
2023/12/19 01:43:59;;;;;;;;;;;;;;;;;;5032946;28;19987;-46
2023/12/19 01:46:26;;;;;;;;;;;;;;;;;;5021527;28;20390;-47
2023/12/19 01:48:52;;;;;;;;;;;;;;;;;;5013092;28;20444;-47
2023/12/19 01:51:18;;;;;;;;;;;;;;;;;;5024865;28;19956;-47
2023/12/19 01:53:44;;;;;;;;;;;;;;;;;;5013043;28;19924;-47
2023/12/19 01:56:10;;;;;;;;;;;;;;;;;;5025341;28;19914;-47
2023/12/19 01:58:36;;;;;;;;;;;;;;;;;;5022886;28;19914;-47
2023/12/19 02:01:02;;;;;;;;;;;;;;;;;;5015654;28;19914;-47
2023/12/19 02:03:28;;;;;;;;;;;;;;;;;;5016732;28;20244;-47
2023/12/19 02:05:54;;;;;;;;;;;;;;;;;;5024244;28;20028;-47
2023/12/19 02:08:21;;;;;;;;;;;;;;;;;;5032771;28;19927;-47
2023/12/19 02:10:47;;;;;;;;;;;;;;;;;;5013995;28;19932;-47
2023/12/19 02:13:13;;;;;;;;;;;;;;;;;;5011612;28;20449;-46
2023/12/19 02:15:39;;;;;;;;;;;;;;;;;;5012949;28;20334;-47
2023/12/19 02:18:15;;;;;;;;;;;;;;;;;;5012658;28;20024;-47
2023/12/19 02:20:41;;;;;;;;;;;;;;;;;;5012774;28;19913;-47
2023/12/19 02:23:07;;;;;;;;;;;;;;;;;;5031204;28;20428;-47
2023/12/19 02:25:33;;;;;;;;;;;;;;;;;;5032342;28;20266;-47
2023/12/19 02:28:00;;;;;;;;;;;;;;;;;;5032398;28;19916;-47
2023/12/19 02:30:26;;;;;;;;;;;;;;;;;;5032211;28;19913;-47
2023/12/19 02:32:53;;;;;;;;;;;;;;;;;;5032224;28;20250;-48
2023/12/19 02:35:19;;;;;;;;;;;;;;;;;;5030534;28;19972;-47
2023/12/19 02:37:45;;;;;;;;;;;;;;;;;;5032179;28;19913;-48
2023/12/19 02:40:12;;;;;;;;;;;;;;;;;;5030917;28;20386;-47
2023/12/19 02:42:38;;;;;;;;;;;;;;;;;;5032178;28;19913;-48
2023/12/19 02:45:04;;;;;;;;;;;;;;;;;;5031926;28;19924;-48
2023/12/19 02:47:30;;;;;;;;;;;;;;;;;;5030815;28;19917;-50
2023/12/19 02:49:56;;;;;;;;;;;;;;;;;;5031866;28;19920;-50
2023/12/19 02:52:23;;;;;;;;;;;;;;;;;;5032035;28;19909;-50
2023/12/19 02:54:49;;;;;;;;;;;;;;;;;;5031862;28;20118;-49
2023/12/19 02:57:15;;;;;;;;;;;;;;;;;;5031810;28;20139;-49
2023/12/19 02:59:41;;;;;;;;;;;;;;;;;;5012245;28;19992;-49
2023/12/19 03:02:07;;;;;;;;;;;;;;;;;;5011012;28;20374;-48
2023/12/19 03:04:33;;;;;;;;;;;;;;;;;;5010623;28;19913;-50
2023/12/19 03:06:59;;;;;;;;;;;;;;;;;;5013298;28;19910;-49
2023/12/19 03:09:25;;;;;;;;;;;;;;;;;;5022522;28;20385;-48
2023/12/19 03:11:51;;;;;;;;;;;;;;;;;;5020395;28;20279;-49
2023/12/19 03:14:17;;;;;;;;;;;;;;;;;;5019678;28;19917;-48
2023/12/19 03:16:43;;;;;;;;;;;;;;;;;;5023815;28;20389;-49
2023/12/19 03:19:09;;;;;;;;;;;;;;;;;;5015871;28;19952;-48
2023/12/19 03:21:35;;;;;;;;;;;;;;;;;;5034123;28;19960;-50
2023/12/19 03:24:01;;;;;;;;;;;;;;;;;;5035562;28;19921;-49
2023/12/19 03:26:27;;;;;;;;;;;;;;;;;;5035421;28;19914;-48
2023/12/19 03:28:53;;;;;;;;;;;;;;;;;;5034181;28;19933;-47
2023/12/19 03:31:19;;;;;;;;;;;;;;;;;;5035435;28;20378;-50
2023/12/19 03:33:45;;;;;;;;;;;;;;;;;;5017027;28;19917;-48
2023/12/19 03:36:11;;;;;;;;;;;;;;;;;;5015270;28;19917;-47
2023/12/19 03:38:37;;;;;;;;;;;;;;;;;;5014372;28;19913;-48
2023/12/19 03:41:03;;;;;;;;;;;;;;;;;;5014356;28;19917;-48
2023/12/19 03:43:29;;;;;;;;;;;;;;;;;;5014191;28;19913;-47
2023/12/19 03:46:00;;;;;;;;;;;;;;;;;;5015096;28;19936;-47
2023/12/19 03:48:27;;;;;;;;;;;;;;;;;;5015614;28;19917;-47
2023/12/19 03:50:54;;;;;;;;;;;;;;;;;;5014212;28;20036;-47
2023/12/19 03:53:20;;;;;;;;;;;;;;;;;;5016426;28;20317;-47
2023/12/19 03:55:46;;;;;;;;;;;;;;;;;;5025324;28;19984;-47
2023/12/19 03:58:12;;;;;;;;;;;;;;;;;;5013916;28;19988;-47
2023/12/19 04:00:38;;;;;;;;;;;;;;;;;;5016386;28;20016;-47
2023/12/19 04:03:04;;;;;;;;;;;;;;;;;;5023313;28;19913;-47
2023/12/19 04:05:30;;;;;;;;;;;;;;;;;;5032676;28;19913;-47
2023/12/19 04:07:56;;;;;;;;;;;;;;;;;;5017104;28;19913;-46
2023/12/19 04:10:22;;;;;;;;;;;;;;;;;;5020162;28;19916;-47
2023/12/19 04:12:48;;;;;;;;;;;;;;;;;;5027947;28;19913;-47
2023/12/19 04:15:14;;;;;;;;;;;;;;;;;;5032841;28;19964;-47
2023/12/19 04:17:40;;;;;;;;;;;;;;;;;;5020275;28;20343;-47
2023/12/19 04:20:07;;;;;;;;;;;;;;;;;;5022115;28;19910;-47
2023/12/19 04:22:33;;;;;;;;;;;;;;;;;;5013113;28;20004;-46
2023/12/19 04:24:59;;;;;;;;;;;;;;;;;;5012781;28;20045;-47
2023/12/19 04:27:25;;;;;;;;;;;;;;;;;;5015554;28;20016;-47
2023/12/19 04:29:54;;;;;;;;;;;;;;;;;;5014586;28;20398;-47
2023/12/19 04:32:21;;;;;;;;;;;;;;;;;;5032893;28;19913;-47
2023/12/19 04:34:47;;;;;;;;;;;;;;;;;;5027802;28;19924;-47
2023/12/19 04:37:13;;;;;;;;;;;;;;;;;;5013150;28;20307;-48
2023/12/19 04:39:39;;;;;;;;;;;;;;;;;;5016623;28;19921;-47
2023/12/19 04:42:07;;;;;;;;;;;;;;;;;;5034129;28;19913;-47
2023/12/19 04:44:33;;;;;;;;;;;;;;;;;;5028510;28;19932;-47
2023/12/19 04:46:59;;;;;;;;;;;;;;;;;;5029696;28;19917;-48
2023/12/19 04:49:25;;;;;;;;;;;;;;;;;;5025099;28;19952;-47
2023/12/19 04:51:51;;;;;;;;;;;;;;;;;;5005533;28;19968;-43
2023/12/19 04:54:17;;;;;;;;;;;;;;;;;;5014100;28;19909;-49
2023/12/19 04:56:43;;;;;;;;;;;;;;;;;;5015051;28;19920;-47
2023/12/19 04:59:09;;;;;;;;;;;;;;;;;;5013980;28;19920;-47
2023/12/19 05:01:39;;;;;;;;;;;;;;;;;;5014025;28;20275;-47
2023/12/19 05:04:05;;;;;;;;;;;;;;;;;;5013956;28;19923;-47
2023/12/19 05:06:32;;;;;;;;;;;;;;;;;;5013807;28;19965;-47
2023/12/19 05:08:58;;;;;;;;;;;;;;;;;;5013882;28;19921;-47
2023/12/19 05:11:24;;;;;;;;;;;;;;;;;;5013833;28;19920;-48
2023/12/19 05:13:50;;;;;;;;;;;;;;;;;;5012564;28;19999;-48
2023/12/19 05:16:16;;;;;;;;;;;;;;;;;;5013632;28;19913;-46
2023/12/19 05:18:42;;;;;;;;;;;;;;;;;;5013810;28;19913;-48
2023/12/19 05:21:08;;;;;;;;;;;;;;;;;;5013701;28;19968;-47
2023/12/19 05:23:34;;;;;;;;;;;;;;;;;;5013661;28;20375;-47
2023/12/19 05:26:00;;;;;;;;;;;;;;;;;;5013235;28;19973;-48
2023/12/19 05:28:26;;;;;;;;;;;;;;;;;;5013502;28;20448;-46
2023/12/19 05:30:56;;;;;;;;;;;;;;;;;;5013454;28;20330;-47
2023/12/19 05:33:22;;;;;;;;;;;;;;;;;;5012759;28;20386;-47
2023/12/19 05:35:48;;;;;;;;;;;;;;;;;;5013055;28;20354;-48
2023/12/19 05:38:14;;;;;;;;;;;;;;;;;;5013398;28;19922;-47
2023/12/19 05:40:42;;;;;;;;;;;;;;;;;;5013227;28;19943;-47
2023/12/19 05:43:08;;;;;;;;;;;;;;;;;;5013263;28;20011;-47
2023/12/19 05:45:34;;;;;;;;;;;;;;;;;;5012928;28;20405;-47
2023/12/19 05:48:00;;;;;;;;;;;;;;;;;;5013238;28;20432;-46
2023/12/19 05:50:26;;;;;;;;;;;;;;;;;;5013123;28;20385;-47
2023/12/19 05:52:52;;;;;;;;;;;;;;;;;;5013273;28;20366;-47
2023/12/19 05:55:18;;;;;;;;;;;;;;;;;;5011915;28;20282;-46
2023/12/19 05:57:44;;;;;;;;;;;;;;;;;;5012982;28;20408;-47
2023/12/19 06:00:10;;;;;;;;;;;;;;;;;;5013042;28;19921;-47
2023/12/19 06:02:36;;;;;;;;;;;;;;;;;;5011828;28;20411;-47
2023/12/19 06:05:07;;;;;;;;;;;;;;;;;;5012592;28;20004;-46
2023/12/19 06:07:33;;;;;;;;;;;;;;;;;;5013014;28;19914;-47
2023/12/19 06:09:59;;;;;;;;;;;;;;;;;;5012780;28;19920;-47
2023/12/19 06:12:25;;;;;;;;;;;;;;;;;;5012809;28;19917;-47
2023/12/19 06:14:51;;;;;;;;;;;;;;;;;;5012552;28;19972;-47
2023/12/19 06:17:17;;;;;;;;;;;;;;;;;;5012766;28;19972;-47
2023/12/19 06:19:43;;;;;;;;;;;;;;;;;;5012684;28;19917;-47
2023/12/19 06:22:10;;;;;;;;;;;;;;;;;;5012874;28;20435;-48
2023/12/19 06:24:36;;;;;;;;;;;;;;;;;;5012490;28;19913;-46
2023/12/19 06:27:02;;;;;;;;;;;;;;;;;;5012588;28;20404;-47
2023/12/19 06:29:28;;;;;;;;;;;;;;;;;;5012592;28;19910;-47
2023/12/19 06:31:54;;;;;;;;;;;;;;;;;;5011268;28;19914;-46
2023/12/19 06:34:20;;;;;;;;;;;;;;;;;;5011101;28;19928;-47
2023/12/19 06:36:46;;;;;;;;;;;;;;;;;;5012259;28;19999;-46
2023/12/19 06:39:12;;;;;;;;;;;;;;;;;;5012387;28;19917;-46
2023/12/19 06:41:38;;;;;;;;;;;;;;;;;;5012655;28;20432;-46
2023/12/19 06:44:04;;;;;;;;;;;;;;;;;;5012226;28;20009;-47
2023/12/19 06:46:30;;;;;;;;;;;;;;;;;;5010898;28;19918;-47
2023/12/19 06:48:57;;;;;;;;;;;;;;;;;;5012332;28;19909;-47
2023/12/19 06:51:23;;;;;;;;;;;;;;;;;;5012353;28;19914;-46
2023/12/19 06:53:49;;;;;;;;;;;;;;;;;;4994677;28;20004;-46
2023/12/19 06:56:15;;;;;;;;;;;;;;;;;;5012050;28;19913;-47
2023/12/19 06:58:41;;;;;;;;;;;;;;;;;;5012340;28;19916;-47
2023/12/19 07:01:07;;;;;;;;;;;;;;;;;;5010962;28;20362;-46
2023/12/19 07:03:33;;;;;;;;;;;;;;;;;;5012737;28;19916;-46
2023/12/19 07:05:59;;;;;;;;;;;;;;;;;;5012117;28;19940;-48
2023/12/19 07:08:25;;;;;;;;;;;;;;;;;;5012144;28;19996;-47
2023/12/19 07:10:51;;;;;;;;;;;;;;;;;;5012154;28;19948;-48
2023/12/19 07:13:17;;;;;;;;;;;;;;;;;;5010896;28;20293;-49
2023/12/19 07:15:43;;;;;;;;;;;;;;;;;;5011978;28;19914;-49
2023/12/19 07:18:09;;;;;;;;;;;;;;;;;;5012037;28;19949;-47
2023/12/19 07:20:35;;;;;;;;;;;;;;;;;;5011969;28;20444;-49
2023/12/19 07:23:02;;;;;;;;;;;;;;;;;;5012024;28;19956;-49
2023/12/19 07:25:28;;;;;;;;;;;;;;;;;;5011753;28;20015;-46
2023/12/19 07:27:54;;;;;;;;;;;;;;;;;;5011987;28;19948;-46
2023/12/19 07:30:20;;;;;;;;;;;;;;;;;;5011983;28;19953;-47
2023/12/19 07:32:46;;;;;;;;;;;;;;;;;;5010762;28;20014;-46
2023/12/19 07:35:14;;;;;;;;;;;;;;;;;;5010414;28;19937;-47
2023/12/19 07:37:40;;;;;;;;;;;;;;;;;;5010704;28;19914;-47
2023/12/19 07:40:10;;;;;;;;;;;;;;;;;;5010731;28;19918;-47
2023/12/19 07:42:36;;;;;;;;;;;;;;;;;;5011838;28;19917;-47
2023/12/19 07:45:03;;;;;;;;;;;;;;;;;;5011534;28;19917;-47
2023/12/19 07:47:29;;;;;;;;;;;;;;;;;;5011811;28;19920;-47
2023/12/19 07:49:55;;;;;;;;;;;;;;;;;;5011763;28;19913;-47
2023/12/19 07:52:21;;;;;;;;;;;;;;;;;;5011754;28;19913;-46
2023/12/19 07:54:47;;;;;;;;;;;;;;;;;;5010302;28;19963;-47
2023/12/19 07:57:13;;;;;;;;;;;;;;;;;;5015069;28;19956;-46
2023/12/19 07:59:39;;;;;;;;;;;;;;;;;;5015269;28;19913;-47
2023/12/19 08:02:05;;;;;;;;;;;;;;;;;;5013994;28;19918;-47
2023/12/19 08:04:31;;;;;;;;;;;;;;;;;;5013658;28;20005;-47
2023/12/19 08:06:57;;;;;;;;;;;;;;;;;;5015057;28;19921;-46
2023/12/19 08:09:23;;;;;;;;;;;;;;;;;;5015076;28;19917;-46
2023/12/19 08:11:50;;;;;;;;;;;;;;;;;;5013715;28;20290;-46
2023/12/19 08:14:16;;;;;;;;;;;;;;;;;;5014813;28;19913;-46
2023/12/19 08:16:42;;;;;;;;;;;;;;;;;;5015066;28;19974;-46
2023/12/19 08:19:08;;;;;;;;;;;;;;;;;;5014759;28;19921;-46
2023/12/19 08:21:34;;;;;;;;;;;;;;;;;;5015027;28;20322;-46
2023/12/19 08:24:03;;;;;;;;;;;;;;;;;;5014814;28;20229;-47
2023/12/19 08:26:29;;;;;;;;;;;;;;;;;;5013238;28;19921;-46
2023/12/19 08:28:55;;;;;;;;;;;;;;;;;;5014617;28;20000;-47
2023/12/19 08:31:21;;;;;;;;;;;;;;;;;;5014830;28;19914;-47
2023/12/19 08:33:47;;;;;;;;;;;;;;;;;;5014607;28;19957;-47
2023/12/19 08:36:13;;;;;;;;;;;;;;;;;;5014219;28;19918;-46
2023/12/19 08:38:39;;;;;;;;;;;;;;;;;;5014509;28;20064;-49
2023/12/19 08:41:05;;;;;;;;;;;;;;;;;;5014353;28;19920;-47
2023/12/19 08:43:32;;;;;;;;;;;;;;;;;;5014403;28;19952;-47
2023/12/19 08:45:58;;;;;;;;;;;;;;;;;;5014014;28;20023;-46
2023/12/19 08:48:24;;;;;;;;;;;;;;;;;;5013004;28;19913;-46
2023/12/19 08:50:50;;;;;;;;;;;;;;;;;;5014291;28;19975;-47
2023/12/19 08:53:17;;;;;;;;;;;;;;;;;;5012983;28;19914;-46
2023/12/19 08:55:46;;;;;;;;;;;;;;;;;;5013974;28;19920;-47
2023/12/19 08:58:12;;;;;;;;;;;;;;;;;;5012857;28;19940;-47
2023/12/19 09:00:38;;;;;;;;;;;;;;;;;;5014326;28;20274;-47
2023/12/19 09:03:05;;;;;;;;;;;;;;;;;;5014216;28;19913;-46
2023/12/19 09:05:31;;;;;;;;;;;;;;;;;;5013718;28;19925;-46
2023/12/19 09:07:58;;;;;;;;;;;;;;;;;;5012925;28;19917;-47
2023/12/19 09:10:24;;;;;;;;;;;;;;;;;;5013837;28;19914;-47
2023/12/19 09:12:50;;;;;;;;;;;;;;;;;;5013950;28;19918;-47
2023/12/19 09:15:16;;;;;;;;;;;;;;;;;;5013536;28;19925;-47
2023/12/19 09:17:42;;;;;;;;;;;;;;;;;;5013876;28;19913;-46
2023/12/19 09:20:10;;;;;;;;;;;;;;;;;;5013756;28;20007;-47
2023/12/19 09:22:36;;;;;;;;;;;;;;;;;;5013679;28;20294;-46
2023/12/19 09:25:02;;;;;;;;;;;;;;;;;;5012076;28;20298;-47
2023/12/19 09:27:28;;;;;;;;;;;;;;;;;;5013598;28;20275;-47
2023/12/19 09:29:54;;;;;;;;;;;;;;;;;;5013454;28;20051;-47
2023/12/19 09:32:20;;;;;;;;;;;;;;;;;;5013510;28;19917;-46
2023/12/19 09:34:46;;;;;;;;;;;;;;;;;;5013195;28;19921;-47
2023/12/19 09:37:12;;;;;;;;;;;;;;;;;;5013361;28;19914;-47
2023/12/19 09:39:38;;;;;;;;;;;;;;;;;;5013252;28;19996;-47
2023/12/19 09:42:06;;;;;;;;;;;;;;;;;;5013253;28;19921;-46
2023/12/19 09:44:32;;;;;;;;;;;;;;;;;;5013061;28;19929;-47
2023/12/19 09:46:58;;;;;;;;;;;;;;;;;;5013237;28;19957;-47
2023/12/19 09:49:24;;;;;;;;;;;;;;;;;;5013263;28;20004;-47
2023/12/19 09:51:52;;;;;;;;;;;;;;;;;;5012077;28;19917;-47
2023/12/19 09:54:18;;;;;;;;;;;;;;;;;;5013023;28;19913;-48
2023/12/19 09:56:44;;;;;;;;;;;;;;;;;;5012853;28;19914;-51
2023/12/19 09:59:10;;;;;;;;;;;;;;;;;;5013208;28;19918;-48
2023/12/19 10:01:38;;;;;;;;;;;;;;;;;;5013132;28;20005;-51
2023/12/19 10:04:08;;;;;;;;;;;;;;;;;;5012941;28;19913;-47
2023/12/19 10:06:34;;;;;;;;;;;;;;;;;;5012814;28;19917;-47
2023/12/19 10:09:00;;;;;;;;;;;;;;;;;;5012880;28;19914;-47
2023/12/19 10:11:27;;;;;;;;;;;;;;;;;;5012852;28;19917;-47
2023/12/19 10:13:54;;;;;;;;;;;;;;;;;;5007067;28;19949;-47
2023/12/19 10:16:20;;;;;;;;;;;;;;;;;;5010930;28;19918;-47
2023/12/19 10:18:46;;;;;;;;;;;;;;;;;;5011891;28;19963;-47
2023/12/19 10:21:15;;;;;;;;;;;;;;;;;;5010920;28;20456;-47
2023/12/19 10:23:41;;;;;;;;;;;;;;;;;;4992989;28;20298;-46
2023/12/19 10:26:07;;;;;;;;;;;;;;;;;;4992394;28;20305;-47
2023/12/19 10:28:33;;;;;;;;;;;;;;;;;;4992021;28;20338;-46
2023/12/19 10:31:00;;;;;;;;;;;;;;;;;;4992882;28;20449;-47
2023/12/19 10:33:26;;;;;;;;;;;;;;;;;;4993852;28;19917;-46
2023/12/19 10:35:52;;;;;;;;;;;;;;;;;;4992565;28;19968;-47
2023/12/19 10:38:18;;;;;;;;;;;;;;;;;;4990740;28;19914;-46
2023/12/19 10:40:44;;;;;;;;;;;;;;;;;;4992520;28;20280;-48
2023/12/19 10:43:10;;;;;;;;;;;;;;;;;;4992891;28;20287;-46
2023/12/19 10:45:38;;;;;;;;;;;;;;;;;;4992485;28;19976;-47
2023/12/19 10:48:04;;;;;;;;;;;;;;;;;;4975321;28;19914;-45
2023/12/19 10:50:30;;;;;;;;;;;;;;;;;;4992578;28;19985;-46
2023/12/19 10:52:57;;;;;;;;;;;;;;;;;;4991519;28;19972;-46
2023/12/19 10:55:23;;;;;;;;;;;;;;;;;;4992269;28;19914;-47
2023/12/19 10:57:49;;;;;;;;;;;;;;;;;;4991469;28;19969;-47
2023/12/19 11:00:21;;;;;;;;;;;;;;;;;;4990392;28;20407;-46
2023/12/19 11:02:47;;;;;;;;;;;;;;;;;;4991893;28;19921;-46
2023/12/19 11:05:13;;;;;;;;;;;;;;;;;;4991517;28;19913;-46
2023/12/19 11:07:40;;;;;;;;;;;;;;;;;;4990683;28;20021;-47
2023/12/19 11:10:06;;;;;;;;;;;;;;;;;;4992508;28;19921;-45
2023/12/19 11:12:32;;;;;;;;;;;;;;;;;;4992399;28;19968;-46
2023/12/19 11:14:58;;;;;;;;;;;;;;;;;;4992153;28;20004;-45
2023/12/19 11:17:26;;;;;;;;;;;;;;;;;;4991085;28;19914;-46
2023/12/19 11:19:52;;;;;;;;;;;;;;;;;;4992266;28;19932;-45
2023/12/19 11:22:18;;;;;;;;;;;;;;;;;;4991118;28;19913;-45
2023/12/19 11:24:44;;;;;;;;;;;;;;;;;;4992220;28;19913;-46
2023/12/19 11:27:10;;;;;;;;;;;;;;;;;;4992232;28;19918;-46
2023/12/19 11:29:36;;;;;;;;;;;;;;;;;;4992411;28;19913;-45
2023/12/19 11:32:02;;;;;;;;;;;;;;;;;;4995526;28;19921;-47
2023/12/19 11:34:28;;;;;;;;;;;;;;;;;;4994465;28;19924;-46
2023/12/19 11:36:54;;;;;;;;;;;;;;;;;;4996345;28;19918;-46
2023/12/19 11:39:20;;;;;;;;;;;;;;;;;;4996002;28;19963;-47
2023/12/19 11:41:46;;;;;;;;;;;;;;;;;;4984301;28;19945;-45
2023/12/19 11:44:12;;;;;;;;;;;;;;;;;;5019090;28;19914;-46
2023/12/19 11:46:38;;;;;;;;;;;;;;;;;;5022053;28;20413;-46
2023/12/19 11:49:04;;;;;;;;;;;;;;;;;;5029473;28;19924;-45
2023/12/19 11:51:31;;;;;;;;;;;;;;;;;;5033437;28;19920;-46
2023/12/19 11:53:57;;;;;;;;;;;;;;;;;;5032076;28;20015;-47
2023/12/19 11:56:23;;;;;;;;;;;;;;;;;;5024351;28;20263;-47
2023/12/19 11:58:52;;;;;;;;;;;;;;;;;;5016967;28;20405;-47
2023/12/19 12:01:19;;;;;;;;;;;;;;;;;;5016818;28;19921;-48
2023/12/19 12:03:45;;;;;;;;;;;;;;;;;;5024610;28;19917;-47
2023/12/19 12:06:11;;;;;;;;;;;;;;;;;;5019112;28;19968;-46
2023/12/19 12:08:37;;;;;;;;;;;;;;;;;;5033264;28;19982;-47
2023/12/19 12:11:04;;;;;;;;;;;;;;;;;;5028532;28;19913;-47
2023/12/19 12:13:30;;;;;;;;;;;;;;;;;;5031946;28;19932;-46
2023/12/19 12:15:56;;;;;;;;;;;;;;;;;;5022033;28;19932;-47
2023/12/19 12:18:23;;;;;;;;;;;;;;;;;;5014843;28;20012;-47
2023/12/19 12:20:49;;;;;;;;;;;;;;;;;;5031061;28;19913;-46
2023/12/19 12:23:16;;;;;;;;;;;;;;;;;;5031385;28;19920;-46
2023/12/19 12:25:42;;;;;;;;;;;;;;;;;;5022144;28;19928;-46
2023/12/19 12:28:09;;;;;;;;;;;;;;;;;;5026470;28;19917;-47
2023/12/19 12:30:35;;;;;;;;;;;;;;;;;;5028159;28;19916;-47
2023/12/19 12:33:01;;;;;;;;;;;;;;;;;;5023808;28;19917;-47
2023/12/19 12:35:35;;;;;;;;;;;;;;;;;;5021910;28;20377;-47
2023/12/19 12:38:01;;;;;;;;;;;;;;;;;;5031494;28;20337;-46
2023/12/19 12:40:27;;;;;;;;;;;;;;;;;;5015123;28;19929;-46
2023/12/19 12:42:53;;;;;;;;;;;;;;;;;;5028100;28;19924;-46
2023/12/19 12:45:20;;;;;;;;;;;;;;;;;;5017893;28;20334;-47
2023/12/19 12:47:47;;;;;;;;;;;;;;;;;;5031613;28;19921;-46
2023/12/19 12:50:13;;;;;;;;;;;;;;;;;;5030566;28;19953;-48
2023/12/19 12:52:39;;;;;;;;;;;;;;;;;;5013843;28;19996;-47
2023/12/19 12:55:06;;;;;;;;;;;;;;;;;;5026873;28;20005;-48
2023/12/19 12:57:32;;;;;;;;;;;;;;;;;;5031583;28;19967;-46
2023/12/19 12:59:58;;;;;;;;;;;;;;;;;;5012458;28;19922;-48
2023/12/19 13:02:24;;;;;;;;;;;;;;;;;;5031380;28;19921;-46
2023/12/19 13:04:50;;;;;;;;;;;;;;;;;;5018055;28;19920;-48
2023/12/19 13:07:16;;;;;;;;;;;;;;;;;;5012791;28;19921;-50
2023/12/19 13:09:42;;;;;;;;;;;;;;;;;;5017050;28;19917;-49
2023/12/19 13:12:08;;;;;;;;;;;;;;;;;;5026469;28;19936;-46
2023/12/19 13:14:34;;;;;;;;;;;;;;;;;;5012560;28;19913;-47
2023/12/19 13:17:01;;;;;;;;;;;;;;;;;;5027520;28;19913;-47
2023/12/19 13:19:28;;;;;;;;;;;;;;;;;;5008363;28;19960;-47
2023/12/19 13:21:54;;;;;;;;;;;;;;;;;;5026540;28;19924;-47
2023/12/19 13:24:22;;;;;;;;;;;;;;;;;;5029418;28;19944;-47
2023/12/19 13:26:49;;;;;;;;;;;;;;;;;;5033625;28;19917;-46
2023/12/19 13:29:15;;;;;;;;;;;;;;;;;;5033223;28;20425;-46
2023/12/19 13:31:42;;;;;;;;;;;;;;;;;;5031963;28;19913;-47
2023/12/19 13:34:08;;;;;;;;;;;;;;;;;;5031839;28;19916;-46
2023/12/19 13:36:34;;;;;;;;;;;;;;;;;;5033211;28;19923;-47
2023/12/19 13:39:00;;;;;;;;;;;;;;;;;;5033233;28;19936;-46
2023/12/19 13:41:26;;;;;;;;;;;;;;;;;;5033044;28;20620;-47
2023/12/19 13:43:52;;;;;;;;;;;;;;;;;;5015193;28;20380;-47
2023/12/19 13:46:18;;;;;;;;;;;;;;;;;;5032729;28;19917;-48
2023/12/19 13:48:45;;;;;;;;;;;;;;;;;;5031701;28;19909;-46
2023/12/19 13:51:11;;;;;;;;;;;;;;;;;;5032883;28;19913;-46
2023/12/19 13:53:37;;;;;;;;;;;;;;;;;;5032322;28;19918;-46
2023/12/19 13:56:04;;;;;;;;;;;;;;;;;;5032541;28;19921;-47
2023/12/19 13:58:30;;;;;;;;;;;;;;;;;;5013863;28;19910;-45
2023/12/19 14:00:56;;;;;;;;;;;;;;;;;;5012882;28;19918;-47
2023/12/19 14:03:22;;;;;;;;;;;;;;;;;;5002883;28;19914;-46
2023/12/19 14:05:48;;;;;;;;;;;;;;;;;;5011393;28;19918;-47
2023/12/19 14:08:15;;;;;;;;;;;;;;;;;;5018941;28;19909;-47
2023/12/19 14:10:42;;;;;;;;;;;;;;;;;;5019754;28;19976;-46
2023/12/19 14:13:08;;;;;;;;;;;;;;;;;;5011797;28;19914;-48
2023/12/19 14:15:34;;;;;;;;;;;;;;;;;;5010152;28;20005;-46
2023/12/19 14:18:00;;;;;;;;;;;;;;;;;;5010048;28;20370;-46
2023/12/19 14:20:28;;;;;;;;;;;;;;;;;;4993572;28;19918;-47
2023/12/19 14:22:54;;;;;;;;;;;;;;;;;;5011313;28;20400;-51
2023/12/19 14:25:20;;;;;;;;;;;;;;;;;;4999472;28;20381;-45
2023/12/19 14:27:46;;;;;;;;;;;;;;;;;;5017401;28;20383;-47
2023/12/19 14:30:13;;;;;;;;;;;;;;;;;;5016840;28;19914;-46
2023/12/19 14:32:39;;;;;;;;;;;;;;;;;;5025931;28;20013;-45
2023/12/19 14:35:06;;;;;;;;;;;;;;;;;;5030849;28;19968;-47
2023/12/19 14:37:32;;;;;;;;;;;;;;;;;;5031903;28;19953;-45
2023/12/19 14:39:58;;;;;;;;;;;;;;;;;;5031107;28;19913;-47
2023/12/19 14:42:24;;;;;;;;;;;;;;;;;;5027784;28;19909;-45
2023/12/19 14:44:50;;;;;;;;;;;;;;;;;;5011995;28;19914;-46
2023/12/19 14:47:16;;;;;;;;;;;;;;;;;;5010846;28;19928;-45
2023/12/19 14:49:43;;;;;;;;;;;;;;;;;;5030351;28;20382;-45
2023/12/19 14:52:09;;;;;;;;;;;;;;;;;;5020607;28;19935;-47
2023/12/19 14:54:36;;;;;;;;;;;;;;;;;;5012160;28;19984;-45
2023/12/19 14:57:02;;;;;;;;;;;;;;;;;;5012074;28;20378;-46
2023/12/19 14:59:28;;;;;;;;;;;;;;;;;;5012283;28;20003;-47
2023/12/19 15:01:56;;;;;;;;;;;;;;;;;;5010879;28;19910;-45
2023/12/19 15:04:22;;;;;;;;;;;;;;;;;;5012760;28;19933;-46
2023/12/19 15:06:48;;;;;;;;;;;;;;;;;;5015997;28;20024;-46
2023/12/19 15:09:18;;;;;;;;;;;;;;;;;;5014895;28;20333;-46
2023/12/19 15:11:44;;;;;;;;;;;;;;;;;;5014391;28;19918;-47
2023/12/19 15:14:11;;;;;;;;;;;;;;;;;;5011217;28;20004;-46
2023/12/19 15:16:38;;;;;;;;;;;;;;;;;;5015539;28;20346;-46
2023/12/19 15:19:04;;;;;;;;;;;;;;;;;;5015909;28;20353;-45
2023/12/19 15:21:30;;;;;;;;;;;;;;;;;;5014388;28;19968;-46
2023/12/19 15:23:56;;;;;;;;;;;;;;;;;;5014610;28;20052;-45
2023/12/19 15:26:22;;;;;;;;;;;;;;;;;;5014661;28;19917;-47
2023/12/19 15:28:48;;;;;;;;;;;;;;;;;;5015851;28;19948;-45
2023/12/19 15:31:15;;;;;;;;;;;;;;;;;;5015790;28;19914;-45
2023/12/19 15:33:42;;;;;;;;;;;;;;;;;;5015800;28;19913;-46
2023/12/19 15:36:08;;;;;;;;;;;;;;;;;;5015385;28;19929;-45
2023/12/19 15:38:34;;;;;;;;;;;;;;;;;;5015701;28;20401;-47
2023/12/19 15:41:00;;;;;;;;;;;;;;;;;;5014364;28;19913;-45
2023/12/19 15:43:26;;;;;;;;;;;;;;;;;;5015633;28;19917;-46
2023/12/19 15:45:52;;;;;;;;;;;;;;;;;;5014226;28;20282;-45
2023/12/19 15:48:18;;;;;;;;;;;;;;;;;;5015517;28;19913;-46
2023/12/19 15:50:44;;;;;;;;;;;;;;;;;;5015419;28;19920;-47
2023/12/19 15:53:10;;;;;;;;;;;;;;;;;;5014995;28;19998;-47
2023/12/19 15:55:36;;;;;;;;;;;;;;;;;;5015151;28;19933;-47
2023/12/19 15:58:02;;;;;;;;;;;;;;;;;;5013939;28;19952;-47
2023/12/19 16:00:28;;;;;;;;;;;;;;;;;;5013809;28;20282;-47
2023/12/19 16:02:59;;;;;;;;;;;;;;;;;;5015090;28;19914;-48
2023/12/19 16:05:26;;;;;;;;;;;;;;;;;;5013612;28;19952;-47
2023/12/19 16:07:52;;;;;;;;;;;;;;;;;;5015267;28;19917;-47
2023/12/19 16:10:18;;;;;;;;;;;;;;;;;;5015416;28;19914;-51
2023/12/19 16:12:44;;;;;;;;;;;;;;;;;;5015331;28;19914;-46
2023/12/19 16:15:11;;;;;;;;;;;;;;;;;;5013507;28;20008;-47
2023/12/19 16:17:37;;;;;;;;;;;;;;;;;;5012996;28;19913;-47
2023/12/19 16:20:03;;;;;;;;;;;;;;;;;;4997187;28;20417;-46
2023/12/19 16:22:29;;;;;;;;;;;;;;;;;;5013485;28;19940;-46
2023/12/19 16:24:55;;;;;;;;;;;;;;;;;;5013424;28;19914;-47
2023/12/19 16:27:21;;;;;;;;;;;;;;;;;;5010960;28;19937;-46
2023/12/19 16:29:48;;;;;;;;;;;;;;;;;;5013610;28;19917;-48
2023/12/19 16:32:14;;;;;;;;;;;;;;;;;;5013056;28;19917;-46
2023/12/19 16:34:40;;;;;;;;;;;;;;;;;;5052069;22;19912;-62
2023/12/19 16:37:06;;;;;;;;;;;;;;;;;;4995319;28;19960;-63
2023/12/19 16:39:34;;;;;;;;;;;;;;;;;;5012068;28;20275;-61